METAR (acronimo di METeorological Air Report) è un messaggio meteo emesso nella maggior parte dei casi in ambito aeroportuale

CYYZ - Toronto-Pearson, Ontario, Canada
Ultimo Aggiornamento: Giovedì 04 Giugno 2020 03:00 CEST
Qualche Nuvola
Qualche Nuvola
 Wind from Nord-Ovest
Vento: Nord-Ovest 13 km/h
Temperatura: 22°C
Punto di Rugiada: 16°C
Umidità: 69%
Barometro: 1005.4 hPa
Nuvole: Qualche Nuvola
Visibilità: 24 km
Nuvole nel Dettaglio: Qualche Nuvola 7620 m
2020/06/04 01:00 CYYZ 040100Z 31007KT 15SM FEW250 22/16 A2969 RMK CI1 SLP053 DENSITY ALT 1800FT
CYHZ - Halifax, Nova Scotia, Canada
Ultimo Aggiornamento: Giovedì 04 Giugno 2020 03:00 CEST
Nebbia, Nuvoloso
Nebbia, Nuvoloso
 Wind from varies
Vento: variabile 4 km/h
Temperatura: 8°C
Punto di Rugiada: 8°C
Umidità: 100%
Barometro: 1002.7 hPa
Condizioni: Nebbia
Nuvole: Nuvoloso
Visibilità: 0.2 km
Nuvole nel Dettaglio: Nuvoloso 30 m
2020/06/04 01:00 CYHZ 040100Z VRB02KT 1/8SM R23/2800FT/U R14/2600FT/N FG VV001 08/08 A2961 RMK FG8 SLP032
CYOW - Ottawa, Ontario, Canada
Ultimo Aggiornamento: Giovedì 04 Giugno 2020 03:00 CEST
Prevalentemente Nuvoloso
Prevalentemente Nuvoloso
 Wind from Nord-Nord-Ovest
Vento: Nord-Nord-Ovest 9 km/h
Temperatura: 16°C
Punto di Rugiada: 13°C
Umidità: 83%
Barometro: 1003.4 hPa
Nuvole: Prevalentemente Nuvoloso
Visibilità: 24 km
Nuvole nel Dettaglio: Qualche Nuvola 762 m
Parzialmente Nuvoloso 1219 m
Prevalentemente Nuvoloso 2438 m
Prevalentemente Nuvoloso 7620 m
2020/06/04 01:00 CYOW 040100Z 33005KT 15SM FEW025TCU SCT040 BKN080 BKN250 16/13 A2963 RMK TCU1SC2AC1CI1 AC TR CI TR SLP035 DENSITY ALT 1000FT
 
PANC - Anchorage, Alaska, United States
Ultimo Aggiornamento: Giovedì 04 Giugno 2020 02:53 CEST
Pioggia Leggera, Prevalentemente Nuvoloso
Pioggia Leggera, Prevalentemente Nuvoloso
 Wind from Sud-Sud-Est
Vento: Sud-Sud-Est 20 km/h, Raffica: 37 km/h
Temperatura: 16°C
Punto di Rugiada: 3°C
Umidità: 42%
Barometro: 1013.5 hPa
Condizioni: Pioggia Leggera
Nuvole: Prevalentemente Nuvoloso
Visibilità: 16 km
Nuvole nel Dettaglio: Qualche Nuvola 1829 m
Parzialmente Nuvoloso 2896 m
Prevalentemente Nuvoloso 3962 m
Prevalentemente Nuvoloso 6096 m
2020/06/04 00:53 PANC 040053Z 15011G20KT 130V190 10SM -RA FEW060 SCT095 BKN130 BKN200 16/03 A2993 RMK AO2 RAB51 SLP136 P0000 T01560028
KIAD - Washington-Dulles, Virginia, United States
Ultimo Aggiornamento: Giovedì 04 Giugno 2020 02:52 CEST
Prevalentemente Nuvoloso
Prevalentemente Nuvoloso
 Wind from Ovest-Nord-Ovest
Vento: Ovest-Nord-Ovest 6 km/h
Temperatura: 29°C
Heat Index: 29°C
Punto di Rugiada: 16°C
Umidità: 45%
Barometro: 1006.8 hPa
Nuvole: Prevalentemente Nuvoloso
Visibilità: 16 km
Nuvole nel Dettaglio: Qualche Nuvola 2134 m
Prevalentemente Nuvoloso 3658 m
Prevalentemente Nuvoloso 6096 m
2020/06/04 00:52 KIAD 040052Z 29003KT 10SM FEW070 BKN120 BKN200 29/16 A2973 RMK AO2 SLP064 T02890156 $
KJFK - New York-JFK, New York, United States
Ultimo Aggiornamento: Giovedì 04 Giugno 2020 03:35 CEST
Heavy thunderstorm, Pioggia, Bruma, Nuvoloso
Heavy thunderstorm, Pioggia, Bruma, Nuvoloso
 Wind from calm
Vento: Calma
Temperatura: 19°C
Punto di Rugiada: 18°C
Umidità: 94%
Barometro: 1006.1 hPa
Condizioni: Heavy thunderstorm, Pioggia, Bruma
Nuvole: Nuvoloso
Visibilità: 6 km
Nuvole nel Dettaglio: Parzialmente Nuvoloso 549 m
Prevalentemente Nuvoloso 1036 m
Nuvoloso 3353 m
2020/06/04 01:35 KJFK 040135Z 00000KT 4SM R04R/2400VP6000FT +TSRA BR SCT018 BKN034CB OVC110 19/18 A2971 RMK AO2 LTG DSNT NE AND E RAB22 TSB35 OCNL LTGIC OHD AND SE-SW TS OHD AND SE-SW MOV SE P0017 T01940183
 
KORD - Chicago, Illinois, United States
Ultimo Aggiornamento: Giovedì 04 Giugno 2020 02:51 CEST
Prevalentemente Nuvoloso
Prevalentemente Nuvoloso
 Wind from Sud-Est
Vento: Sud-Est 13 km/h
Temperatura: 26°C
Punto di Rugiada: 12°C
Umidità: 42%
Barometro: 1008.1 hPa
Nuvole: Prevalentemente Nuvoloso
Visibilità: 16 km
Nuvole nel Dettaglio: Parzialmente Nuvoloso 2134 m
Prevalentemente Nuvoloso 7620 m
2020/06/04 00:51 KORD 040051Z 14007KT 10SM SCT070 BKN250 26/12 A2977 RMK AO2 SLP075 T02610117 $
KDEN - Denver, Colorado, United States
Ultimo Aggiornamento: Giovedì 04 Giugno 2020 02:53 CEST
Prevalentemente Nuvoloso
Prevalentemente Nuvoloso
 Wind from Est-Nord-Est
Vento: Est-Nord-Est 19 km/h
Temperatura: 26°C
Punto di Rugiada: 5°C
Umidità: 26%
Barometro: 1017.6 hPa
Nuvole: Prevalentemente Nuvoloso
Visibilità: 16 km
Nuvole nel Dettaglio: Qualche Nuvola 3048 m
Prevalentemente Nuvoloso 3962 m
Prevalentemente Nuvoloso 6706 m
2020/06/04 00:53 KDEN 040053Z 06010KT 10SM FEW100 BKN130 BKN220 26/05 A3005 RMK AO2 LTG DSNT W SLP097 VIRGA T02560050
KSLC - Salt Lake City, Utah, United States
Ultimo Aggiornamento: Giovedì 04 Giugno 2020 02:54 CEST
Prevalentemente Nuvoloso
Prevalentemente Nuvoloso
 Wind from varies
Vento: variabile 6 km/h
Temperatura: 32°C
Punto di Rugiada: 3°C
Umidità: 16%
Barometro: 1014.2 hPa
Nuvole: Prevalentemente Nuvoloso
Visibilità: 16 km
Nuvole nel Dettaglio: Parzialmente Nuvoloso 2896 m
Parzialmente Nuvoloso 4267 m
Prevalentemente Nuvoloso 6096 m
2020/06/04 00:54 KSLC 040054Z VRB03KT 10SM SCT095TCU SCT140 BKN200 32/03 A2995 RMK AO2 SLP084 VIRGA TCU OHD T03220028
 
KBOS - Boston, Massachusetts, United States
Ultimo Aggiornamento: Giovedì 04 Giugno 2020 02:54 CEST
Prevalentemente Nuvoloso
Prevalentemente Nuvoloso
 Wind from Nord-Ovest
Vento: Nord-Ovest 19 km/h
Temperatura: 23°C
Punto di Rugiada: 16°C
Umidità: 65%
Barometro: 1002 hPa
Nuvole: Prevalentemente Nuvoloso
Visibilità: 16 km
Nuvole nel Dettaglio: Qualche Nuvola 244 m
Parzialmente Nuvoloso 1372 m
Prevalentemente Nuvoloso 1981 m
Prevalentemente Nuvoloso 6096 m
2020/06/04 00:54 KBOS 040054Z 31010KT 10SM FEW008 SCT045 BKN065 BKN200 23/16 A2959 RMK AO2 SLP019 SHRA NE-E T02280156
KLAX - Los Angeles, California, United States
Ultimo Aggiornamento: Giovedì 04 Giugno 2020 02:53 CEST
Qualche Nuvola
Qualche Nuvola
 Wind from Ovest-Sud-Ovest
Vento: Ovest-Sud-Ovest 17 km/h
Temperatura: 21°C
Punto di Rugiada: 15°C
Umidità: 69%
Barometro: 1009.5 hPa
Nuvole: Qualche Nuvola
Visibilità: 16 km
Nuvole nel Dettaglio: Qualche Nuvola 3048 m
Qualche Nuvola 4572 m
2020/06/04 00:53 KLAX 040053Z 24009KT 10SM FEW100 FEW150 21/15 A2981 RMK AO2 SLP091 T02110150 $
KLAS - Las Vegas, Nevada, United States
Ultimo Aggiornamento: Giovedì 04 Giugno 2020 02:56 CEST
Qualche Nuvola
Qualche Nuvola
 Wind from Est
Vento: Est 6 km/h
Temperatura: 38°C
Punto di Rugiada: 2°C
Umidità: 10%
Barometro: 1009.1 hPa
Nuvole: Qualche Nuvola
Visibilità: 16 km
Nuvole nel Dettaglio: Qualche Nuvola 4572 m
Qualche Nuvola 6096 m
2020/06/04 00:56 KLAS 040056Z 09003KT 10SM FEW150 FEW200 38/02 A2980 RMK AO2 SLP061 T03830022
 
KSFO - San Francisco, California, United States
Ultimo Aggiornamento: Giovedì 04 Giugno 2020 02:56 CEST
Qualche Nuvola
Qualche Nuvola
 Wind from Ovest-Nord-Ovest
Vento: Ovest-Nord-Ovest 31 km/h
Temperatura: 25°C
Punto di Rugiada: 12°C
Umidità: 44%
Barometro: 1011.5 hPa
Nuvole: Qualche Nuvola
Visibilità: 16 km
Nuvole nel Dettaglio: Qualche Nuvola 6096 m
2020/06/04 00:56 KSFO 040056Z 29017KT 10SM FEW200 25/12 A2987 RMK AO2 SLP115 T02500117
KATL - Atlanta, Georgia, United States
Ultimo Aggiornamento: Giovedì 04 Giugno 2020 02:52 CEST
Prevalentemente Nuvoloso
Prevalentemente Nuvoloso
 Wind from Sud-Ovest
Vento: Sud-Ovest 9 km/h
Temperatura: 27°C
Heat Index: 28°C
Punto di Rugiada: 19°C
Umidità: 62%
Barometro: 1014.9 hPa
Nuvole: Prevalentemente Nuvoloso
Visibilità: 16 km
Nuvole nel Dettaglio: Qualche Nuvola 4572 m
Prevalentemente Nuvoloso 6096 m
Prevalentemente Nuvoloso 7620 m
2020/06/04 00:52 KATL 040052Z 22005KT 10SM FEW150 BKN200 BKN250 27/19 A2997 RMK AO2 SLP137 T02670189
KDFW - Dallas / Fort Worth, Texas, United States
Ultimo Aggiornamento: Giovedì 04 Giugno 2020 02:53 CEST
Qualche Nuvola
Qualche Nuvola
 Wind from Sud
Vento: Sud 17 km/h
Temperatura: 31°C
Heat Index: 32°C
Punto di Rugiada: 18°C
Umidità: 46%
Barometro: 1010.5 hPa
Nuvole: Qualche Nuvola
Visibilità: 16 km
Nuvole nel Dettaglio: Qualche Nuvola 7620 m
2020/06/04 00:53 KDFW 040053Z 18009KT 10SM FEW250 31/18 A2984 RMK AO2 SLP094 T03110178
 
KMCI - Kansas City, Missouri, United States
Ultimo Aggiornamento: Giovedì 04 Giugno 2020 02:53 CEST
Qualche Nuvola
Qualche Nuvola
 Wind from Ovest-Sud-Ovest
Vento: Ovest-Sud-Ovest 7 km/h
Temperatura: 30°C
Heat Index: 34°C
Punto di Rugiada: 23°C
Umidità: 66%
Barometro: 1008.1 hPa
Nuvole: Qualche Nuvola
Visibilità: 16 km
Nuvole nel Dettaglio: Qualche Nuvola 3048 m
Qualche Nuvola 7620 m
2020/06/04 00:53 KMCI 040053Z 24004KT 10SM FEW100 FEW250 30/23 A2977 RMK AO2 SLP066 T03000228 $
KIAH - Houston, Texas, United States
Ultimo Aggiornamento: Giovedì 04 Giugno 2020 02:53 CEST
Prevalentemente Nuvoloso
Prevalentemente Nuvoloso
 Wind from calm
Vento: Calma
Temperatura: 27°C
Heat Index: 31°C
Punto di Rugiada: 24°C
Umidità: 84%
Barometro: 1012.9 hPa
Nuvole: Prevalentemente Nuvoloso
Visibilità: 16 km
Nuvole nel Dettaglio: Qualche Nuvola 457 m
Parzialmente Nuvoloso 3658 m
Prevalentemente Nuvoloso 5486 m
Prevalentemente Nuvoloso 7620 m
2020/06/04 00:53 KIAH 040053Z 00000KT 10SM FEW015 SCT120 BKN180 BKN250 27/24 A2991 RMK AO2 SLP127 T02720239
KMIA - Miami, Florida, United States
Ultimo Aggiornamento: Giovedì 04 Giugno 2020 02:53 CEST
Pioggia Leggera, Nuvoloso
Pioggia Leggera, Nuvoloso
 Wind from calm
Vento: Calma
Temperatura: 24°C
Punto di Rugiada: 23°C
Umidità: 94%
Barometro: 1015.6 hPa
Condizioni: Pioggia Leggera
Nuvole: Nuvoloso
Visibilità: 16 km
Nuvole nel Dettaglio: Qualche Nuvola 762 m
Parzialmente Nuvoloso 1829 m
Prevalentemente Nuvoloso 5486 m
Nuvoloso 7620 m
2020/06/04 00:53 KMIA 040053Z 00000KT 10SM -RA FEW025 SCT060 BKN180 OVC250 24/23 A2999 RMK AO2 LTG DSNT SW RAB18E26B50 SLP154 CB DSNT SW P0000 T02440233
 
KMSY - New Orleans, Louisiana, United States
Ultimo Aggiornamento: Giovedì 04 Giugno 2020 02:53 CEST
Prevalentemente Nuvoloso
Prevalentemente Nuvoloso
 Wind from Sud-Sud-Est
Vento: Sud-Sud-Est 9 km/h
Temperatura: 27°C
Heat Index: 30°C
Punto di Rugiada: 23°C
Umidità: 79%
Barometro: 1014.6 hPa
Nuvole: Prevalentemente Nuvoloso
Visibilità: 16 km
Nuvole nel Dettaglio: Qualche Nuvola 457 m
Qualche Nuvola 3048 m
Parzialmente Nuvoloso 4877 m
Prevalentemente Nuvoloso 6706 m
2020/06/04 00:53 KMSY 040053Z 15005KT 10SM FEW015 FEW100 SCT160 BKN220 27/23 A2996 RMK AO2 SLP149 T02720228
MMMX - Mexico City, Mexico
Ultimo Aggiornamento: Giovedì 04 Giugno 2020 02:45 CEST
Prevalentemente Nuvoloso
Prevalentemente Nuvoloso
 Wind from Nord
Vento: Nord 22 km/h
Temperatura: 22°C
Punto di Rugiada: 9°C
Umidità: 44%
Barometro: 1023 hPa
Nuvole: Prevalentemente Nuvoloso
Visibilità: 19 km
Nuvole nel Dettaglio: Parzialmente Nuvoloso 762 m
Prevalentemente Nuvoloso 2134 m
2020/06/04 00:45 MMMX 040045Z 01012KT 12SM SCT025 BKN070 22/09 A3021 NOSIG RMK 8/230 DSNT CB SE AND S ISOL CI
MUHA - Havana, Cuba
Ultimo Aggiornamento: Giovedì 04 Giugno 2020 02:55 CEST
Pioggia Leggera, Prevalentemente Nuvoloso
Pioggia Leggera, Prevalentemente Nuvoloso
 Wind from Est-Nord-Est
Vento: Est-Nord-Est 6 km/h
Temperatura: 24°C
Punto di Rugiada: 24°C
Umidità: 100%
Barometro: 1014 hPa
Condizioni: Pioggia Leggera
Nuvole: Prevalentemente Nuvoloso
Visibilità: 8 km
Nuvole nel Dettaglio: Parzialmente Nuvoloso 610 m
Prevalentemente Nuvoloso 4572 m
2020/06/04 00:55 MUHA 040055Z 07003KT 040V100 8000 -RA SCT020 BKN150 24/24 Q1014